sensor_id;sensor_type;location;lat;lon;timestamp;pressure;altitude;pressure_sealevel;temperature;humidity
75425;BME280;64007;50.632;13.700;2023-08-12T00:01:22;98489.38;;;16.88;100.00
75425;BME280;64007;50.632;13.700;2023-08-12T00:03:50;98487.84;;;16.85;100.00
75425;BME280;64007;50.632;13.700;2023-08-12T00:06:16;98491.22;;;16.87;100.00
75425;BME280;64007;50.632;13.700;2023-08-12T00:08:42;98487.38;;;16.90;100.00
75425;BME280;64007;50.632;13.700;2023-08-12T00:11:08;98490.53;;;16.85;100.00
75425;BME280;64007;50.632;13.700;2023-08-12T00:13:33;98490.38;;;16.87;100.00
75425;BME280;64007;50.632;13.700;2023-08-12T00:15:59;98489.59;;;16.95;100.00
75425;BME280;64007;50.632;13.700;2023-08-12T00:18:25;98492.59;;;16.91;100.00
75425;BME280;64007;50.632;13.700;2023-08-12T00:20:51;98488.22;;;16.90;100.00
75425;BME280;64007;50.632;13.700;2023-08-12T00:23:16;98494.06;;;16.86;100.00
75425;BME280;64007;50.632;13.700;2023-08-12T00:25:42;98493.50;;;16.82;100.00
75425;BME280;64007;50.632;13.700;2023-08-12T00:28:08;98491.25;;;16.78;100.00
75425;BME280;64007;50.632;13.700;2023-08-12T00:30:33;98485.34;;;16.74;100.00
75425;BME280;64007;50.632;13.700;2023-08-12T00:32:59;98487.34;;;16.72;100.00
75425;BME280;64007;50.632;13.700;2023-08-12T00:35:25;98482.19;;;16.79;100.00
75425;BME280;64007;50.632;13.700;2023-08-12T00:37:51;98481.66;;;16.75;100.00
75425;BME280;64007;50.632;13.700;2023-08-12T00:40:16;98483.81;;;16.72;100.00
75425;BME280;64007;50.632;13.700;2023-08-12T00:42:42;98476.38;;;16.66;100.00
75425;BME280;64007;50.632;13.700;2023-08-12T00:45:09;98475.78;;;16.62;100.00
75425;BME280;64007;50.632;13.700;2023-08-12T00:47:36;98466.34;;;16.58;100.00
75425;BME280;64007;50.632;13.700;2023-08-12T00:50:03;98468.72;;;16.61;100.00
75425;BME280;64007;50.632;13.700;2023-08-12T00:52:28;98468.84;;;16.69;100.00
75425;BME280;64007;50.632;13.700;2023-08-12T00:54:54;98471.84;;;16.66;100.00
75425;BME280;64007;50.632;13.700;2023-08-12T00:57:20;98473.59;;;16.75;100.00
75425;BME280;64007;50.632;13.700;2023-08-12T00:59:47;98468.53;;;16.72;100.00
75425;BME280;64007;50.632;13.700;2023-08-12T01:02:14;98470.13;;;16.65;100.00
75425;BME280;64007;50.632;13.700;2023-08-12T01:04:40;98465.06;;;16.62;100.00
75425;BME280;64007;50.632;13.700;2023-08-12T01:07:05;98468.19;;;16.57;100.00
75425;BME280;64007;50.632;13.700;2023-08-12T01:09:32;98470.63;;;16.51;100.00
75425;BME280;64007;50.632;13.700;2023-08-12T01:12:14;98463.50;;;16.42;100.00
75425;BME280;64007;50.632;13.700;2023-08-12T01:14:47;98467.13;;;16.41;100.00
75425;BME280;64007;50.632;13.700;2023-08-12T01:17:15;98461.53;;;16.34;100.00
75425;BME280;64007;50.632;13.700;2023-08-12T01:19:42;98462.13;;;16.28;100.00
75425;BME280;64007;50.632;13.700;2023-08-12T01:22:10;98455.91;;;16.27;100.00
75425;BME280;64007;50.632;13.700;2023-08-12T01:27:03;98465.97;;;16.25;100.00
75425;BME280;64007;50.632;13.700;2023-08-12T01:29:29;98472.63;;;16.21;100.00
75425;BME280;64007;50.632;13.700;2023-08-12T01:32:08;98470.53;;;16.15;100.00
75425;BME280;64007;50.632;13.700;2023-08-12T01:37:08;98452.34;;;16.09;100.00
75425;BME280;64007;50.632;13.700;2023-08-12T01:39:38;98456.03;;;16.08;100.00
75425;BME280;64007;50.632;13.700;2023-08-12T01:42:05;98450.66;;;16.08;100.00
75425;BME280;64007;50.632;13.700;2023-08-12T01:44:31;98462.38;;;16.07;100.00
75425;BME280;64007;50.632;13.700;2023-08-12T01:46:57;98452.66;;;16.06;100.00
75425;BME280;64007;50.632;13.700;2023-08-12T01:49:23;98449.56;;;16.01;100.00
75425;BME280;64007;50.632;13.700;2023-08-12T01:51:50;98454.19;;;15.99;100.00
75425;BME280;64007;50.632;13.700;2023-08-12T01:54:15;98450.94;;;16.05;100.00
75425;BME280;64007;50.632;13.700;2023-08-12T01:56:41;98439.63;;;16.11;100.00
75425;BME280;64007;50.632;13.700;2023-08-12T01:59:07;98457.72;;;16.09;100.00
75425;BME280;64007;50.632;13.700;2023-08-12T02:01:32;98448.81;;;16.09;100.00
75425;BME280;64007;50.632;13.700;2023-08-12T02:03:58;98455.88;;;16.10;100.00
75425;BME280;64007;50.632;13.700;2023-08-12T02:06:24;98453.72;;;16.13;100.00
75425;BME280;64007;50.632;13.700;2023-08-12T02:08:49;98444.69;;;16.14;100.00
75425;BME280;64007;50.632;13.700;2023-08-12T02:11:16;98443.31;;;16.10;100.00
75425;BME280;64007;50.632;13.700;2023-08-12T02:13:41;98443.59;;;16.07;100.00
75425;BME280;64007;50.632;13.700;2023-08-12T02:16:07;98442.75;;;16.07;100.00
75425;BME280;64007;50.632;13.700;2023-08-12T02:18:34;98439.94;;;16.08;100.00
75425;BME280;64007;50.632;13.700;2023-08-12T02:21:00;98446.97;;;16.09;100.00
75425;BME280;64007;50.632;13.700;2023-08-12T02:23:26;98447.81;;;16.10;100.00
75425;BME280;64007;50.632;13.700;2023-08-12T02:25:52;98441.63;;;16.09;100.00
75425;BME280;64007;50.632;13.700;2023-08-12T02:28:20;98446.97;;;16.09;100.00
75425;BME280;64007;50.632;13.700;2023-08-12T02:30:45;98436.56;;;16.06;100.00
75425;BME280;64007;50.632;13.700;2023-08-12T02:33:11;98430.50;;;16.04;100.00
75425;BME280;64007;50.632;13.700;2023-08-12T02:35:37;98431.47;;;16.03;100.00
75425;BME280;64007;50.632;13.700;2023-08-12T02:38:04;98428.38;;;15.98;100.00
75425;BME280;64007;50.632;13.700;2023-08-12T02:40:29;98429.50;;;15.95;100.00
75425;BME280;64007;50.632;13.700;2023-08-12T02:42:55;98434.03;;;15.95;100.00
75425;BME280;64007;50.632;13.700;2023-08-12T02:45:20;98421.91;;;15.91;100.00
75425;BME280;64007;50.632;13.700;2023-08-12T02:47:46;98428.16;;;15.82;100.00
75425;BME280;64007;50.632;13.700;2023-08-12T02:50:12;98427.47;;;15.80;100.00
75425;BME280;64007;50.632;13.700;2023-08-12T02:52:38;98430.44;;;15.77;100.00
75425;BME280;64007;50.632;13.700;2023-08-12T02:55:04;98429.91;;;15.73;100.00
75425;BME280;64007;50.632;13.700;2023-08-12T02:57:30;98433.41;;;15.74;100.00
75425;BME280;64007;50.632;13.700;2023-08-12T02:59:55;98425.66;;;15.71;100.00
75425;BME280;64007;50.632;13.700;2023-08-12T03:02:21;98426.97;;;15.66;100.00
75425;BME280;64007;50.632;13.700;2023-08-12T03:04:47;98426.25;;;15.64;100.00
75425;BME280;64007;50.632;13.700;2023-08-12T03:07:12;98430.78;;;15.64;100.00
75425;BME280;64007;50.632;13.700;2023-08-12T03:09:38;98428.25;;;15.62;100.00
75425;BME280;64007;50.632;13.700;2023-08-12T03:12:04;98433.88;;;15.59;100.00
75425;BME280;64007;50.632;13.700;2023-08-12T03:14:31;98424.41;;;15.55;100.00
75425;BME280;64007;50.632;13.700;2023-08-12T03:16:57;98424.69;;;15.52;100.00
75425;BME280;64007;50.632;13.700;2023-08-12T03:19:22;98427.38;;;15.52;100.00
75425;BME280;64007;50.632;13.700;2023-08-12T03:21:48;98430.75;;;15.54;100.00
75425;BME280;64007;50.632;13.700;2023-08-12T03:24:14;98425.97;;;15.48;100.00
75425;BME280;64007;50.632;13.700;2023-08-12T03:26:39;98432.31;;;15.47;100.00
75425;BME280;64007;50.632;13.700;2023-08-12T03:29:05;98433.06;;;15.40;100.00
75425;BME280;64007;50.632;13.700;2023-08-12T03:31:31;98425.44;;;15.35;100.00
75425;BME280;64007;50.632;13.700;2023-08-12T03:33:57;98427.72;;;15.30;100.00
75425;BME280;64007;50.632;13.700;2023-08-12T03:36:23;98429.41;;;15.31;100.00
75425;BME280;64007;50.632;13.700;2023-08-12T03:38:49;98426.03;;;15.29;100.00
75425;BME280;64007;50.632;13.700;2023-08-12T03:41:14;98435.06;;;15.28;100.00
75425;BME280;64007;50.632;13.700;2023-08-12T03:43:40;98431.38;;;15.29;100.00
75425;BME280;64007;50.632;13.700;2023-08-12T03:46:06;98434.75;;;15.31;100.00
75425;BME280;64007;50.632;13.700;2023-08-12T03:48:31;98439.56;;;15.27;100.00
75425;BME280;64007;50.632;13.700;2023-08-12T03:50:57;98440.69;;;15.25;100.00
75425;BME280;64007;50.632;13.700;2023-08-12T03:53:23;98436.47;;;15.22;100.00
75425;BME280;64007;50.632;13.700;2023-08-12T03:55:49;98433.34;;;15.17;100.00
75425;BME280;64007;50.632;13.700;2023-08-12T03:58:15;98429.13;;;15.15;100.00
75425;BME280;64007;50.632;13.700;2023-08-12T04:00:42;98428.28;;;15.14;100.00
75425;BME280;64007;50.632;13.700;2023-08-12T04:03:08;98422.06;;;15.14;100.00
75425;BME280;64007;50.632;13.700;2023-08-12T04:05:34;98416.72;;;15.14;100.00
75425;BME280;64007;50.632;13.700;2023-08-12T04:08:00;98429.41;;;15.12;100.00
75425;BME280;64007;50.632;13.700;2023-08-12T04:10:26;98423.75;;;15.15;100.00
75425;BME280;64007;50.632;13.700;2023-08-12T04:12:51;98427.16;;;15.17;100.00
75425;BME280;64007;50.632;13.700;2023-08-12T04:15:17;98428.84;;;15.18;100.00
75425;BME280;64007;50.632;13.700;2023-08-12T04:17:43;98436.72;;;15.19;100.00
75425;BME280;64007;50.632;13.700;2023-08-12T04:20:09;98436.47;;;15.22;100.00
75425;BME280;64007;50.632;13.700;2023-08-12T04:22:34;98435.34;;;15.25;100.00
75425;BME280;64007;50.632;13.700;2023-08-12T04:25:00;98442.25;;;15.27;100.00
75425;BME280;64007;50.632;13.700;2023-08-12T04:27:26;98440.13;;;15.31;100.00
75425;BME280;64007;50.632;13.700;2023-08-12T04:29:52;98439.13;;;15.32;100.00
75425;BME280;64007;50.632;13.700;2023-08-12T04:32:17;98443.50;;;15.33;100.00
75425;BME280;64007;50.632;13.700;2023-08-12T04:34:45;98434.47;;;15.34;100.00
75425;BME280;64007;50.632;13.700;2023-08-12T04:37:10;98430.81;;;15.35;100.00
75425;BME280;64007;50.632;13.700;2023-08-12T04:39:37;98432.50;;;15.36;100.00
75425;BME280;64007;50.632;13.700;2023-08-12T04:42:02;98433.19;;;15.38;100.00
75425;BME280;64007;50.632;13.700;2023-08-12T04:44:28;98436.56;;;15.40;100.00
75425;BME280;64007;50.632;13.700;2023-08-12T04:46:54;98421.19;;;15.42;100.00
75425;BME280;64007;50.632;13.700;2023-08-12T04:49:20;98429.94;;;15.44;100.00
75425;BME280;64007;50.632;13.700;2023-08-12T04:51:46;98429.09;;;15.44;100.00
75425;BME280;64007;50.632;13.700;2023-08-12T04:54:12;98427.25;;;15.44;100.00
75425;BME280;64007;50.632;13.700;2023-08-12T04:56:37;98432.19;;;15.49;100.00
75425;BME280;64007;50.632;13.700;2023-08-12T04:59:03;98427.09;;;15.46;100.00
75425;BME280;64007;50.632;13.700;2023-08-12T05:01:29;98424.13;;;15.49;100.00
75425;BME280;64007;50.632;13.700;2023-08-12T05:03:55;98431.03;;;15.51;100.00
75425;BME280;64007;50.632;13.700;2023-08-12T05:06:20;98430.75;;;15.54;100.00
75425;BME280;64007;50.632;13.700;2023-08-12T05:08:46;98434.84;;;15.58;100.00
75425;BME280;64007;50.632;13.700;2023-08-12T05:11:12;98437.97;;;15.63;100.00
75425;BME280;64007;50.632;13.700;2023-08-12T05:13:38;98431.31;;;15.68;100.00
75425;BME280;64007;50.632;13.700;2023-08-12T05:16:03;98429.75;;;15.75;100.00
75425;BME280;64007;50.632;13.700;2023-08-12T05:18:29;98438.31;;;15.88;100.00
75425;BME280;64007;50.632;13.700;2023-08-12T05:20:55;98435.72;;;15.96;100.00
75425;BME280;64007;50.632;13.700;2023-08-12T05:23:21;98434.84;;;16.05;100.00
75425;BME280;64007;50.632;13.700;2023-08-12T05:25:47;98430.44;;;16.14;100.00
75425;BME280;64007;50.632;13.700;2023-08-12T05:28:12;98435.13;;;16.29;100.00
75425;BME280;64007;50.632;13.700;2023-08-12T05:30:38;98434.53;;;16.36;100.00
75425;BME280;64007;50.632;13.700;2023-08-12T05:33:04;98435.81;;;16.41;100.00
75425;BME280;64007;50.632;13.700;2023-08-12T05:35:36;98440.13;;;16.52;100.00
75425;BME280;64007;50.632;13.700;2023-08-12T05:38:02;98435.13;;;16.57;100.00
75425;BME280;64007;50.632;13.700;2023-08-12T05:40:28;98431.69;;;16.65;100.00
75425;BME280;64007;50.632;13.700;2023-08-12T05:42:54;98429.94;;;16.73;100.00
75425;BME280;64007;50.632;13.700;2023-08-12T05:45:19;98428.13;;;16.91;100.00
75425;BME280;64007;50.632;13.700;2023-08-12T05:47:45;98419.50;;;17.06;100.00
75425;BME280;64007;50.632;13.700;2023-08-12T05:50:11;98423.31;;;17.21;100.00
75425;BME280;64007;50.632;13.700;2023-08-12T05:52:37;98420.09;;;17.35;100.00
75425;BME280;64007;50.632;13.700;2023-08-12T05:55:03;98420.19;;;17.51;100.00
75425;BME280;64007;50.632;13.700;2023-08-12T05:57:28;98423.28;;;17.82;100.00
75425;BME280;64007;50.632;13.700;2023-08-12T05:59:54;98423.31;;;17.91;100.00
75425;BME280;64007;50.632;13.700;2023-08-12T06:02:20;98424.84;;;17.93;100.00
75425;BME280;64007;50.632;13.700;2023-08-12T06:04:46;98418.97;;;17.98;100.00
75425;BME280;64007;50.632;13.700;2023-08-12T06:07:11;98423.91;;;18.02;99.60
75425;BME280;64007;50.632;13.700;2023-08-12T06:09:37;98422.59;;;18.06;97.26
75425;BME280;64007;50.632;13.700;2023-08-12T06:12:03;98421.97;;;18.21;100.00
75425;BME280;64007;50.632;13.700;2023-08-12T06:14:29;98424.66;;;18.21;100.00
75425;BME280;64007;50.632;13.700;2023-08-12T06:16:55;98420.97;;;18.22;100.00
75425;BME280;64007;50.632;13.700;2023-08-12T06:19:20;98422.38;;;18.42;100.00
75425;BME280;64007;50.632;13.700;2023-08-12T06:21:46;98421.16;;;18.36;100.00
75425;BME280;64007;50.632;13.700;2023-08-12T06:24:11;98423.19;;;18.34;100.00
75425;BME280;64007;50.632;13.700;2023-08-12T06:26:37;98415.94;;;18.35;99.70
75425;BME280;64007;50.632;13.700;2023-08-12T06:29:03;98418.28;;;18.30;99.31
75425;BME280;64007;50.632;13.700;2023-08-12T06:31:29;98425.34;;;18.31;100.00
75425;BME280;64007;50.632;13.700;2023-08-12T06:33:54;98425.75;;;18.44;100.00
75425;BME280;64007;50.632;13.700;2023-08-12T06:36:20;98419.38;;;18.45;98.75
75425;BME280;64007;50.632;13.700;2023-08-12T06:38:45;98420.72;;;18.49;100.00
75425;BME280;64007;50.632;13.700;2023-08-12T06:41:11;98420.41;;;18.60;100.00
75425;BME280;64007;50.632;13.700;2023-08-12T06:43:37;98419.41;;;18.61;100.00
75425;BME280;64007;50.632;13.700;2023-08-12T06:46:03;98422.81;;;18.63;100.00
75425;BME280;64007;50.632;13.700;2023-08-12T06:48:28;98417.41;;;18.71;97.88
75425;BME280;64007;50.632;13.700;2023-08-12T06:50:55;98408.00;;;18.75;98.86
75425;BME280;64007;50.632;13.700;2023-08-12T06:53:21;98409.72;;;18.85;98.99
75425;BME280;64007;50.632;13.700;2023-08-12T06:55:47;98419.84;;;18.91;95.35
75425;BME280;64007;50.632;13.700;2023-08-12T06:58:13;98408.03;;;19.00;97.70
75425;BME280;64007;50.632;13.700;2023-08-12T07:00:40;98412.59;;;19.16;96.24
75425;BME280;64007;50.632;13.700;2023-08-12T07:03:06;98407.38;;;19.30;96.46
75425;BME280;64007;50.632;13.700;2023-08-12T07:05:32;98396.56;;;19.38;97.76
75425;BME280;64007;50.632;13.700;2023-08-12T07:07:58;98400.63;;;19.42;96.33
75425;BME280;64007;50.632;13.700;2023-08-12T07:10:23;98392.00;;;19.47;93.58
75425;BME280;64007;50.632;13.700;2023-08-12T07:12:49;98388.47;;;19.47;95.08
75425;BME280;64007;50.632;13.700;2023-08-12T07:15:15;98387.81;;;19.53;94.46
75425;BME280;64007;50.632;13.700;2023-08-12T07:17:41;98398.56;;;19.61;95.53
75425;BME280;64007;50.632;13.700;2023-08-12T07:20:07;98393.53;;;19.66;93.40
75425;BME280;64007;50.632;13.700;2023-08-12T07:22:33;98393.84;;;19.71;92.48
75425;BME280;64007;50.632;13.700;2023-08-12T07:24:59;98392.50;;;19.75;91.44
75425;BME280;64007;50.632;13.700;2023-08-12T07:27:27;98399.91;;;19.73;92.44
75425;BME280;64007;50.632;13.700;2023-08-12T07:29:53;98399.72;;;19.83;91.54
75425;BME280;64007;50.632;13.700;2023-08-12T07:32:19;98400.91;;;19.80;91.71
75425;BME280;64007;50.632;13.700;2023-08-12T07:34:45;98400.56;;;19.83;94.18
75425;BME280;64007;50.632;13.700;2023-08-12T07:37:11;98402.22;;;19.92;92.47
75425;BME280;64007;50.632;13.700;2023-08-12T07:39:37;98390.69;;;20.15;89.83
75425;BME280;64007;50.632;13.700;2023-08-12T07:42:03;98402.50;;;20.14;88.42
75425;BME280;64007;50.632;13.700;2023-08-12T07:44:29;98399.44;;;20.17;87.84
75425;BME280;64007;50.632;13.700;2023-08-12T07:46:54;98397.84;;;20.30;89.35
75425;BME280;64007;50.632;13.700;2023-08-12T07:49:21;98403.06;;;20.40;88.63
75425;BME280;64007;50.632;13.700;2023-08-12T07:51:47;98390.84;;;20.52;87.60
75425;BME280;64007;50.632;13.700;2023-08-12T07:54:13;98390.81;;;20.60;81.86
75425;BME280;64007;50.632;13.700;2023-08-12T07:56:38;98392.06;;;20.73;84.45
75425;BME280;64007;50.632;13.700;2023-08-12T07:59:04;98392.53;;;20.76;86.56
75425;BME280;64007;50.632;13.700;2023-08-12T08:01:30;98388.59;;;20.87;84.74
75425;BME280;64007;50.632;13.700;2023-08-12T08:03:55;98390.28;;;20.88;83.83
75425;BME280;64007;50.632;13.700;2023-08-12T08:06:22;98385.94;;;21.02;82.28
75425;BME280;64007;50.632;13.700;2023-08-12T08:08:49;98383.78;;;20.97;81.91
75425;BME280;64007;50.632;13.700;2023-08-12T08:11:14;98376.94;;;21.09;84.75
75425;BME280;64007;50.632;13.700;2023-08-12T08:13:40;98368.06;;;21.23;82.66
75425;BME280;64007;50.632;13.700;2023-08-12T08:16:06;98362.28;;;21.26;78.34
75425;BME280;64007;50.632;13.700;2023-08-12T08:18:32;98365.66;;;21.29;79.35
75425;BME280;64007;50.632;13.700;2023-08-12T08:20:58;98364.91;;;21.35;79.04
75425;BME280;64007;50.632;13.700;2023-08-12T08:23:23;98366.50;;;21.44;76.84
75425;BME280;64007;50.632;13.700;2023-08-12T08:25:49;98375.19;;;21.54;81.68
75425;BME280;64007;50.632;13.700;2023-08-12T08:28:15;98369.44;;;21.72;79.07
75425;BME280;64007;50.632;13.700;2023-08-12T08:30:40;98375.69;;;21.72;79.94
75425;BME280;64007;50.632;13.700;2023-08-12T08:33:06;98365.78;;;21.79;77.10
75425;BME280;64007;50.632;13.700;2023-08-12T08:35:32;98367.75;;;21.85;77.65
75425;BME280;64007;50.632;13.700;2023-08-12T08:37:58;98374.94;;;21.93;75.14
75425;BME280;64007;50.632;13.700;2023-08-12T08:40:25;98374.66;;;22.03;79.37
75425;BME280;64007;50.632;13.700;2023-08-12T08:42:52;98374.09;;;22.22;75.65
75425;BME280;64007;50.632;13.700;2023-08-12T08:45:22;98369.22;;;22.32;74.40
75425;BME280;64007;50.632;13.700;2023-08-12T08:47:51;98366.06;;;22.43;75.44
75425;BME280;64007;50.632;13.700;2023-08-12T08:50:17;98369.28;;;22.54;77.93
75425;BME280;64007;50.632;13.700;2023-08-12T08:52:43;98369.63;;;22.65;77.75
75425;BME280;64007;50.632;13.700;2023-08-12T08:55:09;98372.19;;;22.73;72.96
75425;BME280;64007;50.632;13.700;2023-08-12T08:57:37;98368.97;;;22.99;76.02
75425;BME280;64007;50.632;13.700;2023-08-12T09:00:03;98368.16;;;23.05;73.20
75425;BME280;64007;50.632;13.700;2023-08-12T09:02:33;98370.25;;;23.25;73.76
75425;BME280;64007;50.632;13.700;2023-08-12T09:04:59;98357.97;;;23.57;75.62
75425;BME280;64007;50.632;13.700;2023-08-12T09:07:26;98357.91;;;23.50;69.55
75425;BME280;64007;50.632;13.700;2023-08-12T09:09:52;98354.78;;;23.53;69.94
75425;BME280;64007;50.632;13.700;2023-08-12T09:12:19;98349.75;;;23.50;68.94
75425;BME280;64007;50.632;13.700;2023-08-12T09:14:46;98352.75;;;23.55;69.86
75425;BME280;64007;50.632;13.700;2023-08-12T09:17:11;98347.94;;;23.57;72.00
75425;BME280;64007;50.632;13.700;2023-08-12T09:19:37;98343.66;;;23.69;69.57
75425;BME280;64007;50.632;13.700;2023-08-12T09:22:04;98346.88;;;23.86;69.35
75425;BME280;64007;50.632;13.700;2023-08-12T09:24:31;98336.97;;;24.06;68.31
75425;BME280;64007;50.632;13.700;2023-08-12T09:27:03;98340.03;;;24.38;67.47
75425;BME280;64007;50.632;13.700;2023-08-12T09:29:30;98344.53;;;24.65;66.84
75425;BME280;64007;50.632;13.700;2023-08-12T09:32:36;98344.75;;;24.77;61.20
75425;BME280;64007;50.632;13.700;2023-08-12T09:35:15;98335.16;;;24.88;62.79
75425;BME280;64007;50.632;13.700;2023-08-12T09:37:42;98342.34;;;25.22;65.62
75425;BME280;64007;50.632;13.700;2023-08-12T09:40:11;98328.06;;;25.46;62.54
75425;BME280;64007;50.632;13.700;2023-08-12T09:42:44;98327.00;;;25.47;56.55
75425;BME280;64007;50.632;13.700;2023-08-12T09:45:10;98328.03;;;25.59;57.20
75425;BME280;64007;50.632;13.700;2023-08-12T09:47:36;98324.28;;;25.80;59.73
75425;BME280;64007;50.632;13.700;2023-08-12T09:50:02;98315.81;;;26.08;59.14
75425;BME280;64007;50.632;13.700;2023-08-12T09:52:27;98318.41;;;26.35;59.38
75425;BME280;64007;50.632;13.700;2023-08-12T09:54:56;98317.16;;;26.44;55.65
75425;BME280;64007;50.632;13.700;2023-08-12T09:57:23;98308.31;;;26.48;54.11
75425;BME280;64007;50.632;13.700;2023-08-12T09:59:52;98307.16;;;26.63;50.87
75425;BME280;64007;50.632;13.700;2023-08-12T10:02:19;98310.81;;;26.81;54.43
75425;BME280;64007;50.632;13.700;2023-08-12T10:04:46;98310.13;;;26.93;55.14
75425;BME280;64007;50.632;13.700;2023-08-12T10:07:17;98297.38;;;26.80;54.62
75425;BME280;64007;50.632;13.700;2023-08-12T10:09:44;98298.41;;;26.85;54.23
75425;BME280;64007;50.632;13.700;2023-08-12T10:12:10;98295.69;;;26.85;52.41
75425;BME280;64007;50.632;13.700;2023-08-12T10:14:37;98299.81;;;26.95;53.98
75425;BME280;64007;50.632;13.700;2023-08-12T10:17:04;98293.81;;;27.11;53.73
75425;BME280;64007;50.632;13.700;2023-08-12T10:19:30;98297.94;;;27.20;51.37
75425;BME280;64007;50.632;13.700;2023-08-12T10:21:57;98278.13;;;27.31;51.47
75425;BME280;64007;50.632;13.700;2023-08-12T10:24:26;98278.50;;;27.35;51.27
75425;BME280;64007;50.632;13.700;2023-08-12T10:26:53;98289.81;;;27.38;50.16
75425;BME280;64007;50.632;13.700;2023-08-12T10:29:20;98281.69;;;27.50;51.89
75425;BME280;64007;50.632;13.700;2023-08-12T10:31:46;98281.91;;;27.73;50.25
75425;BME280;64007;50.632;13.700;2023-08-12T10:34:24;98284.94;;;28.02;51.82
75425;BME280;64007;50.632;13.700;2023-08-12T10:36:58;98290.00;;;28.17;48.64
75425;BME280;64007;50.632;13.700;2023-08-12T10:39:27;98284.06;;;28.20;48.84
75425;BME280;64007;50.632;13.700;2023-08-12T10:41:56;98280.81;;;27.93;47.29
75425;BME280;64007;50.632;13.700;2023-08-12T10:44:27;98273.88;;;27.78;47.59
75425;BME280;64007;50.632;13.700;2023-08-12T10:47:08;98281.00;;;27.80;48.79
75425;BME280;64007;50.632;13.700;2023-08-12T10:49:38;98277.03;;;27.94;51.06
75425;BME280;64007;50.632;13.700;2023-08-12T10:52:04;98286.22;;;28.18;51.12
75425;BME280;64007;50.632;13.700;2023-08-12T10:54:30;98278.00;;;28.36;52.61
75425;BME280;64007;50.632;13.700;2023-08-12T11:02:20;98262.06;;;28.75;53.31
75425;BME280;64007;50.632;13.700;2023-08-12T11:04:54;98253.69;;;28.99;56.87
75425;BME280;64007;50.632;13.700;2023-08-12T11:07:22;98250.00;;;29.17;54.24
75425;BME280;64007;50.632;13.700;2023-08-12T11:09:52;98254.44;;;29.30;51.30
75425;BME280;64007;50.632;13.700;2023-08-12T11:12:28;98246.34;;;29.35;52.43
75425;BME280;64007;50.632;13.700;2023-08-12T11:14:57;98245.88;;;29.50;50.19
75425;BME280;64007;50.632;13.700;2023-08-12T11:17:31;98243.97;;;29.62;50.77
75425;BME280;64007;50.632;13.700;2023-08-12T11:19:58;98240.97;;;29.52;52.59
75425;BME280;64007;50.632;13.700;2023-08-12T11:22:24;98244.94;;;29.44;54.33
75425;BME280;64007;50.632;13.700;2023-08-12T11:24:51;98233.72;;;29.46;54.31
75425;BME280;64007;50.632;13.700;2023-08-12T11:27:17;98245.03;;;29.61;53.70
75425;BME280;64007;50.632;13.700;2023-08-12T11:29:43;98240.00;;;29.81;53.99
75425;BME280;64007;50.632;13.700;2023-08-12T11:32:09;98231.84;;;30.10;54.54
75425;BME280;64007;50.632;13.700;2023-08-12T11:34:36;98227.53;;;30.42;50.98
75425;BME280;64007;50.632;13.700;2023-08-12T11:37:03;98227.41;;;30.66;47.09
75425;BME280;64007;50.632;13.700;2023-08-12T11:39:29;98223.09;;;30.70;48.63
75425;BME280;64007;50.632;13.700;2023-08-12T11:41:55;98226.19;;;30.90;48.83
75425;BME280;64007;50.632;13.700;2023-08-12T11:44:23;98215.97;;;31.19;52.88
75425;BME280;64007;50.632;13.700;2023-08-12T11:46:49;98209.63;;;31.57;48.94
75425;BME280;64007;50.632;13.700;2023-08-12T11:49:15;98208.53;;;31.97;51.75
75425;BME280;64007;50.632;13.700;2023-08-12T11:51:42;98202.63;;;31.66;40.92
75425;BME280;64007;50.632;13.700;2023-08-12T11:54:10;98202.34;;;32.33;44.47
75425;BME280;64007;50.632;13.700;2023-08-12T11:56:36;98192.22;;;32.66;43.88
75425;BME280;64007;50.632;13.700;2023-08-12T11:59:02;98187.31;;;33.05;39.67
75425;BME280;64007;50.632;13.700;2023-08-12T12:01:28;98187.84;;;33.02;41.52
75425;BME280;64007;50.632;13.700;2023-08-12T12:03:54;98188.69;;;33.02;40.13
75425;BME280;64007;50.632;13.700;2023-08-12T12:06:30;98190.59;;;32.70;36.95
75425;BME280;64007;50.632;13.700;2023-08-12T12:09:00;98183.94;;;32.66;42.71
75425;BME280;64007;50.632;13.700;2023-08-12T12:11:27;98191.34;;;32.87;40.46
75425;BME280;64007;50.632;13.700;2023-08-12T12:13:53;98187.91;;;33.49;39.43
75425;BME280;64007;50.632;13.700;2023-08-12T12:16:19;98190.53;;;33.81;37.90
75425;BME280;64007;50.632;13.700;2023-08-12T12:18:44;98190.81;;;33.75;40.03
75425;BME280;64007;50.632;13.700;2023-08-12T12:21:10;98186.91;;;33.71;37.21
75425;BME280;64007;50.632;13.700;2023-08-12T12:23:37;98191.22;;;33.51;39.66
75425;BME280;64007;50.632;13.700;2023-08-12T12:26:03;98191.38;;;33.82;38.78
75425;BME280;64007;50.632;13.700;2023-08-12T12:28:30;98184.34;;;34.21;40.12
75425;BME280;64007;50.632;13.700;2023-08-12T12:30:56;98188.88;;;34.73;41.12
75425;BME280;64007;50.632;13.700;2023-08-12T12:33:21;98181.72;;;34.98;37.50
75425;BME280;64007;50.632;13.700;2023-08-12T12:35:47;98172.84;;;35.26;36.03
75425;BME280;64007;50.632;13.700;2023-08-12T12:38:13;98168.69;;;35.24;36.95
75425;BME280;64007;50.632;13.700;2023-08-12T12:40:38;98172.06;;;34.85;35.69
75425;BME280;64007;50.632;13.700;2023-08-12T12:43:04;98165.03;;;34.11;36.54
75425;BME280;64007;50.632;13.700;2023-08-12T12:45:30;98160.91;;;33.56;37.92
75425;BME280;64007;50.632;13.700;2023-08-12T12:47:56;98161.63;;;33.84;37.37
75425;BME280;64007;50.632;13.700;2023-08-12T12:50:21;98157.38;;;34.44;37.54
75425;BME280;64007;50.632;13.700;2023-08-12T12:52:47;98151.88;;;35.00;39.15